KVCT/VCT METAR and TAF weather

Enter ICAO airport designator
Station Type Date Time Source
KVCT METAR 2023/03/28 11:01 UTC NOAA

KVCT 281101Z AUTO 01010KT 10SM OVC030 21/19 A3003 RMK AO2 T02110189


Station Type Date Time Source
KVCT Decoded METAR 2023/03/28 11:01 UTC NOAA

VICTORIA REGIONAL AIRPORT, TX, United States (KVCT) 28-52N 96-56W 31M
Mar 28, 2023 - 07:01 AM EDT / 2023.03.28 1101 UTC
Wind: from the N (010 degrees) at 12 MPH (10 KT):0
Visibility: 10 mile(s):0
Sky conditions: overcast
Temperature: 70.0 F (21.1 C)
Dew Point: 66.0 F (18.9 C)
Relative Humidity: 87%
Pressure (altimeter): 30.03 in. Hg (1016 hPa)
ob: KVCT 281101Z AUTO 01010KT 10SM OVC030 21/19 A3003 RMK AO2 T02110189
cycle: 11

Station Type Date Time Source
KVCT TAF 2023/03/28 12:22 UTC NOAA

TAF KVCT 281120Z 2812/2912 01013KT P6SM VCSH OVC020
FM281500 01019G25KT P6SM VCSH BKN025
FM281800 03015G20KT P6SM BKN035
FM290000 02011KT P6SM BKN050

Example: see airport list